createdAt,value
2023-12-08T00:00:52.058Z,61.23
2023-12-08T00:01:52.047Z,60.13
2023-12-08T00:02:52.022Z,59.68
2023-12-08T00:03:51.980Z,60.08
2023-12-08T00:04:52.037Z,61.34
2023-12-08T00:05:52.033Z,62.61
2023-12-08T00:06:51.981Z,60.35
2023-12-08T00:07:51.957Z,58.44
2023-12-08T00:08:51.953Z,57.59
2023-12-08T00:09:51.923Z,58.74
2023-12-08T00:10:51.914Z,60.29
2023-12-08T00:11:51.988Z,60.07
2023-12-08T00:12:51.891Z,59.55
2023-12-08T00:13:51.891Z,60.41
2023-12-08T00:14:51.936Z,64.36
2023-12-08T00:15:51.871Z,57.92
2023-12-08T00:16:51.891Z,60.64
2023-12-08T00:17:51.869Z,62.35
2023-12-08T00:18:51.911Z,62.07
2023-12-08T00:19:51.826Z,60.65
2023-12-08T00:20:51.880Z,59.21
2023-12-08T00:21:51.814Z,56.97
2023-12-08T00:22:52.785Z,61.35
2023-12-08T00:23:51.801Z,61.92
2023-12-08T00:24:51.769Z,58.33
2023-12-08T00:25:51.796Z,57.36
2023-12-08T00:26:51.801Z,58.88
2023-12-08T00:27:51.746Z,62.18
2023-12-08T00:28:51.737Z,60.73
2023-12-08T00:29:51.758Z,60.51
2023-12-08T00:30:51.745Z,59.93
2023-12-08T00:31:51.711Z,63.97
2023-12-08T00:32:51.819Z,62.75
2023-12-08T00:33:51.760Z,62.56
2023-12-08T00:34:51.696Z,61.61
2023-12-08T00:35:51.707Z,60.65
2023-12-08T00:36:51.668Z,60.77
2023-12-08T00:37:51.644Z,62.80
2023-12-08T00:38:51.688Z,59.26
2023-12-08T00:39:51.651Z,61.42
2023-12-08T00:40:51.618Z,59.53
2023-12-08T00:41:51.636Z,61.00
2023-12-08T00:42:51.594Z,59.72
2023-12-08T00:43:51.592Z,59.04
2023-12-08T00:44:51.618Z,55.62
2023-12-08T00:45:51.583Z,60.54
2023-12-08T00:46:51.564Z,60.81
2023-12-08T00:47:51.792Z,62.20
2023-12-08T00:48:51.668Z,57.25
2023-12-08T00:49:51.560Z,60.95
2023-12-08T00:50:51.553Z,60.54
2023-12-08T00:51:51.520Z,62.27
2023-12-08T00:52:51.503Z,62.48
2023-12-08T00:53:51.549Z,60.15
2023-12-08T00:54:51.506Z,62.32
2023-12-08T00:55:51.495Z,59.45
2023-12-08T00:56:51.514Z,61.16
2023-12-08T00:57:51.487Z,60.42
2023-12-08T00:58:51.508Z,61.61
2023-12-08T00:59:51.556Z,61.72
2023-12-08T01:00:51.603Z,64.75
2023-12-08T01:01:51.421Z,62.95
2023-12-08T01:02:51.494Z,62.70
2023-12-08T01:03:51.451Z,63.57
2023-12-08T01:04:52.435Z,61.61
2023-12-08T01:05:51.412Z,64.06
2023-12-08T01:06:51.391Z,59.55
2023-12-08T01:07:51.378Z,60.17
2023-12-08T01:08:51.382Z,62.55
2023-12-08T01:09:51.343Z,61.81
2023-12-08T01:10:51.324Z,60.40
2023-12-08T01:11:51.325Z,58.12
2023-12-08T01:12:51.319Z,59.82
2023-12-08T01:13:51.313Z,62.56
2023-12-08T01:14:51.307Z,58.81
2023-12-08T01:15:51.275Z,61.65
2023-12-08T01:16:51.352Z,64.27
2023-12-08T01:17:51.361Z,60.37
2023-12-08T01:18:51.383Z,62.50
2023-12-08T01:19:51.242Z,61.22
2023-12-08T01:20:51.272Z,63.53
2023-12-08T01:21:51.255Z,57.98
2023-12-08T01:22:51.216Z,61.04
2023-12-08T01:23:51.218Z,63.30
2023-12-08T01:24:51.190Z,56.88
2023-12-08T01:25:51.183Z,55.87
2023-12-08T01:26:51.220Z,60.59
2023-12-08T01:27:51.199Z,59.09
2023-12-08T01:28:51.154Z,58.24
2023-12-08T01:29:51.189Z,60.44
2023-12-08T01:30:51.168Z,61.86
2023-12-08T01:31:51.144Z,62.19
2023-12-08T01:32:51.210Z,62.37
2023-12-08T01:33:51.181Z,63.02
2023-12-08T01:34:51.099Z,59.72
2023-12-08T01:35:51.138Z,61.78
2023-12-08T01:36:52.163Z,63.62
2023-12-08T01:37:51.071Z,62.91
2023-12-08T01:38:51.101Z,63.69
2023-12-08T01:39:51.073Z,64.98
2023-12-08T01:40:51.072Z,64.81
2023-12-08T01:41:51.084Z,65.35
2023-12-08T01:42:51.023Z,61.02
2023-12-08T01:43:51.019Z,63.81
2023-12-08T01:44:51.040Z,62.76
2023-12-08T01:45:51.015Z,57.18
2023-12-08T01:46:50.978Z,63.42
2023-12-08T01:47:52.045Z,63.50
2023-12-08T01:48:51.111Z,61.39
2023-12-08T01:49:51.035Z,65.62
2023-12-08T01:50:50.982Z,60.63
2023-12-08T01:51:50.944Z,62.34
2023-12-08T01:52:50.933Z,59.48
2023-12-08T01:53:50.974Z,58.58
2023-12-08T01:54:50.933Z,63.26
2023-12-08T01:55:50.914Z,61.51
2023-12-08T01:56:50.934Z,64.17
2023-12-08T01:57:50.891Z,60.61
2023-12-08T01:58:50.911Z,61.61
2023-12-08T01:59:50.906Z,61.12
2023-12-08T02:00:50.911Z,63.29
2023-12-08T02:01:50.853Z,61.72
2023-12-08T02:02:51.053Z,62.13
2023-12-08T02:03:50.906Z,60.67
2023-12-08T02:04:50.842Z,58.62
2023-12-08T02:05:50.827Z,58.62
2023-12-08T02:06:50.862Z,61.66
2023-12-08T02:07:50.782Z,63.39
2023-12-08T02:08:50.809Z,61.94
2023-12-08T02:09:50.763Z,61.08
2023-12-08T02:10:50.790Z,62.33
2023-12-08T02:11:50.824Z,61.31
2023-12-08T02:12:50.743Z,59.14
2023-12-08T02:13:50.742Z,61.29
2023-12-08T02:14:50.749Z,58.40
2023-12-08T02:15:50.720Z,56.98
2023-12-08T02:16:50.718Z,62.71
2023-12-08T02:17:50.727Z,62.87
2023-12-08T02:18:50.848Z,61.06
2023-12-08T02:19:50.711Z,60.59
2023-12-08T02:20:50.705Z,59.60
2023-12-08T02:21:50.642Z,60.02
2023-12-08T02:22:50.641Z,61.04
2023-12-08T02:23:50.778Z,61.83
2023-12-08T02:24:51.619Z,59.35
2023-12-08T02:25:50.609Z,57.21
2023-12-08T02:26:50.622Z,59.58
2023-12-08T02:27:50.607Z,60.88
2023-12-08T02:28:50.566Z,60.85
2023-12-08T02:29:50.589Z,59.61
2023-12-08T02:30:50.558Z,58.64
2023-12-08T02:31:50.559Z,58.84
2023-12-08T02:32:50.602Z,63.27
2023-12-08T02:33:50.588Z,61.87
2023-12-08T02:34:50.506Z,59.19
2023-12-08T02:35:50.521Z,60.59
2023-12-08T02:36:50.563Z,60.62
2023-12-08T02:37:50.499Z,62.67
2023-12-08T02:38:50.540Z,62.09
2023-12-08T02:39:50.558Z,59.34
2023-12-08T02:40:50.464Z,62.76
2023-12-08T02:41:50.517Z,57.89
2023-12-08T02:42:50.439Z,62.59
2023-12-08T02:43:50.438Z,64.08
2023-12-08T02:44:50.460Z,59.20
2023-12-08T02:45:50.432Z,61.56
2023-12-08T02:46:50.401Z,63.41
2023-12-08T02:47:50.459Z,61.72
2023-12-08T02:48:54.678Z,61.53
2023-12-08T02:49:51.425Z,61.43
2023-12-08T02:50:50.396Z,62.49
2023-12-08T02:51:50.354Z,63.39
2023-12-08T02:52:51.903Z,63.50
2023-12-08T02:53:50.392Z,59.51
2023-12-08T02:54:50.342Z,64.57
2023-12-08T02:55:50.333Z,62.14
2023-12-08T02:56:50.345Z,62.91
2023-12-08T02:57:50.287Z,61.99
2023-12-08T02:58:50.288Z,61.76
2023-12-08T02:59:50.308Z,63.00
2023-12-08T03:00:50.389Z,65.58
2023-12-08T03:01:50.261Z,61.68
2023-12-08T03:02:50.296Z,62.10
2023-12-08T03:03:50.550Z,63.19
2023-12-08T03:04:50.297Z,62.36
2023-12-08T03:05:50.268Z,62.53
2023-12-08T03:06:50.210Z,60.91
2023-12-08T03:07:50.199Z,60.78
2023-12-08T03:08:50.217Z,60.56
2023-12-08T03:09:50.193Z,63.55
2023-12-08T03:10:50.177Z,60.83
2023-12-08T03:11:50.178Z,61.40
2023-12-08T03:12:50.160Z,62.68
2023-12-08T03:13:50.163Z,60.00
2023-12-08T03:14:50.143Z,61.86
2023-12-08T03:15:50.119Z,60.70
2023-12-08T03:16:50.117Z,60.70
2023-12-08T03:17:50.188Z,63.01
2023-12-08T03:18:50.198Z,65.51
2023-12-08T03:19:50.123Z,64.03
2023-12-08T03:20:50.099Z,63.61
2023-12-08T03:21:50.082Z,62.37
2023-12-08T03:22:50.078Z,64.07
2023-12-08T03:23:50.071Z,64.00
2023-12-08T03:24:50.038Z,62.39
2023-12-08T03:25:50.027Z,61.75
2023-12-08T03:26:50.081Z,61.88
2023-12-08T03:27:50.023Z,60.46
2023-12-08T03:28:50.016Z,63.60
2023-12-08T03:29:50.015Z,61.58
2023-12-08T03:30:49.976Z,63.90
2023-12-08T03:31:49.973Z,61.58
2023-12-08T03:32:50.130Z,62.04
2023-12-08T03:33:50.099Z,62.85
2023-12-08T03:34:49.954Z,62.65
2023-12-08T03:35:49.955Z,62.27
2023-12-08T03:36:49.946Z,61.48
2023-12-08T03:37:49.926Z,60.55
2023-12-08T03:38:49.940Z,59.88
2023-12-08T03:39:49.907Z,61.80
2023-12-08T03:40:49.884Z,61.62
2023-12-08T03:41:49.923Z,64.02
2023-12-08T03:42:49.881Z,60.06
2023-12-08T03:43:49.863Z,62.68
2023-12-08T03:44:49.905Z,63.56
2023-12-08T03:45:50.851Z,64.15
2023-12-08T03:46:49.852Z,61.32
2023-12-08T03:47:49.965Z,62.87
2023-12-08T03:48:51.876Z,58.86
2023-12-08T03:49:50.883Z,63.40
2023-12-08T03:50:49.884Z,61.51
2023-12-08T03:51:49.817Z,59.98
2023-12-08T03:52:49.778Z,61.00
2023-12-08T03:53:49.842Z,62.12
2023-12-08T03:54:49.765Z,63.43
2023-12-08T03:55:49.780Z,63.65
2023-12-08T03:56:49.756Z,63.21
2023-12-08T03:57:49.733Z,62.33
2023-12-08T03:58:49.744Z,61.75
2023-12-08T03:59:49.752Z,64.43
2023-12-08T04:00:49.802Z,60.38
2023-12-08T04:01:49.699Z,63.68
2023-12-08T04:02:49.764Z,63.02
2023-12-08T04:03:49.845Z,63.85
2023-12-08T04:04:49.694Z,64.97
2023-12-08T04:05:49.767Z,63.81
2023-12-08T04:06:49.652Z,64.26
2023-12-08T04:07:49.641Z,64.84
2023-12-08T04:08:49.694Z,64.05
2023-12-08T04:09:49.645Z,64.80
2023-12-08T04:10:49.604Z,63.65
2023-12-08T04:11:49.623Z,61.10
2023-12-08T04:12:49.592Z,61.49
2023-12-08T04:13:49.587Z,63.13
2023-12-08T04:14:49.600Z,64.79
2023-12-08T04:15:49.560Z,63.11
2023-12-08T04:16:49.566Z,62.07
2023-12-08T04:17:49.662Z,63.54
2023-12-08T04:18:49.862Z,62.02
2023-12-08T04:19:49.546Z,62.27
2023-12-08T04:21:21.419Z,60.39
2023-12-08T04:21:49.518Z,62.59
2023-12-08T04:22:49.506Z,62.10
2023-12-08T04:23:49.546Z,61.63
2023-12-08T04:24:49.493Z,60.44
2023-12-08T04:25:49.485Z,61.57
2023-12-08T04:26:49.540Z,62.14
2023-12-08T04:27:49.448Z,62.06
2023-12-08T04:28:49.497Z,61.43
2023-12-08T04:29:49.460Z,63.44
2023-12-08T04:30:49.423Z,62.19
2023-12-08T04:31:49.419Z,62.00
2023-12-08T04:32:49.553Z,63.56
2023-12-08T04:33:49.810Z,62.88
2023-12-08T04:34:49.399Z,60.71
2023-12-08T04:35:49.440Z,63.12
2023-12-08T04:36:49.475Z,62.88
2023-12-08T04:37:49.460Z,61.05
2023-12-08T04:38:49.370Z,58.09
2023-12-08T04:39:49.343Z,62.19
2023-12-08T04:40:49.343Z,64.22
2023-12-08T04:41:49.358Z,63.33
2023-12-08T04:42:49.334Z,63.19
2023-12-08T04:43:49.321Z,59.23
2023-12-08T04:44:49.323Z,60.53
2023-12-08T04:45:49.296Z,61.65
2023-12-08T04:46:49.296Z,61.96
2023-12-08T04:47:49.393Z,61.22
2023-12-08T04:48:49.470Z,60.12
2023-12-08T04:49:49.341Z,61.51
2023-12-08T04:50:49.284Z,61.58
2023-12-08T04:51:49.249Z,62.58
2023-12-08T04:52:49.221Z,62.41
2023-12-08T04:53:49.228Z,62.81
2023-12-08T04:54:49.208Z,61.44
2023-12-08T04:55:49.202Z,62.37
2023-12-08T04:56:49.260Z,63.39
2023-12-08T04:57:49.257Z,61.56
2023-12-08T04:58:49.182Z,60.37
2023-12-08T04:59:49.343Z,62.09
2023-12-08T05:00:49.242Z,59.84
2023-12-08T05:01:49.155Z,63.67
2023-12-08T05:02:49.152Z,62.29
2023-12-08T05:03:49.193Z,61.99
2023-12-08T05:04:49.117Z,61.82
2023-12-08T05:05:49.196Z,61.71
2023-12-08T05:06:49.240Z,61.92
2023-12-08T05:07:49.098Z,63.95
2023-12-08T05:08:49.096Z,61.80
2023-12-08T05:09:49.070Z,62.91
2023-12-08T05:10:49.075Z,64.48
2023-12-08T05:11:49.069Z,62.86
2023-12-08T05:12:49.037Z,63.40
2023-12-08T05:13:49.037Z,64.56
2023-12-08T05:14:49.071Z,63.46
2023-12-08T05:15:49.059Z,64.46
2023-12-08T05:16:49.026Z,62.59
2023-12-08T05:17:49.144Z,64.27
2023-12-08T05:18:49.181Z,64.74
2023-12-08T05:19:49.199Z,64.69
2023-12-08T05:20:49.028Z,64.73
2023-12-08T05:21:48.960Z,62.55
2023-12-08T05:22:48.952Z,62.06
2023-12-08T05:23:48.966Z,65.54
2023-12-08T05:24:48.961Z,64.19
2023-12-08T05:25:48.914Z,63.93
2023-12-08T05:26:49.008Z,63.42
2023-12-08T05:27:48.919Z,63.09
2023-12-08T05:28:48.923Z,64.38
2023-12-08T05:29:49.025Z,64.63
2023-12-08T05:30:48.886Z,62.16
2023-12-08T05:31:48.880Z,65.07
2023-12-08T05:32:48.943Z,64.76
2023-12-08T05:33:48.987Z,64.23
2023-12-08T05:34:48.883Z,65.41
2023-12-08T05:35:48.950Z,65.22
2023-12-08T05:36:48.842Z,64.77
2023-12-08T05:37:48.828Z,64.64
2023-12-08T05:38:48.883Z,63.85
2023-12-08T05:39:48.804Z,65.00
2023-12-08T05:40:48.798Z,65.26
2023-12-08T05:41:48.856Z,64.06
2023-12-08T05:42:48.809Z,64.13
2023-12-08T05:43:48.779Z,65.67
2023-12-08T05:44:48.761Z,64.94
2023-12-08T05:45:48.742Z,64.41
2023-12-08T05:46:48.744Z,65.23
2023-12-08T05:47:48.808Z,65.61
2023-12-08T05:48:48.909Z,65.16
2023-12-08T05:49:48.777Z,65.35
2023-12-08T05:50:48.725Z,63.98
2023-12-08T05:51:48.699Z,65.68
2023-12-08T05:52:48.726Z,64.80
2023-12-08T05:53:48.693Z,63.95
2023-12-08T05:54:48.699Z,64.96
2023-12-08T05:55:48.667Z,64.40
2023-12-08T05:56:48.702Z,64.90
2023-12-08T05:57:48.709Z,63.70
2023-12-08T05:58:48.674Z,63.04
2023-12-08T05:59:48.641Z,63.80
2023-12-08T06:00:48.653Z,64.21
2023-12-08T06:01:48.632Z,64.11
2023-12-08T06:02:48.633Z,65.18
2023-12-08T06:03:48.612Z,63.78
2023-12-08T06:04:48.582Z,64.11
2023-12-08T06:05:48.700Z,63.31
2023-12-08T06:06:48.865Z,63.00
2023-12-08T06:07:48.634Z,63.65
2023-12-08T06:08:48.588Z,62.74
2023-12-08T06:09:48.550Z,63.70
2023-12-08T06:10:48.572Z,64.37
2023-12-08T06:11:48.557Z,63.75
2023-12-08T06:12:48.532Z,65.41
2023-12-08T06:13:48.515Z,62.96
2023-12-08T06:14:48.578Z,64.83
2023-12-08T06:15:48.524Z,62.31
2023-12-08T06:16:48.498Z,63.96
2023-12-08T06:17:48.610Z,63.20
2023-12-08T06:18:48.569Z,61.88
2023-12-08T06:19:48.474Z,62.83
2023-12-08T06:20:48.505Z,64.14
2023-12-08T06:21:48.449Z,62.78
2023-12-08T06:22:48.433Z,62.18
2023-12-08T06:23:48.462Z,64.27
2023-12-08T06:24:48.447Z,62.48
2023-12-08T06:25:48.532Z,63.31
2023-12-08T06:26:48.460Z,61.33
2023-12-08T06:27:48.411Z,62.02
2023-12-08T06:28:48.403Z,63.70
2023-12-08T06:29:48.407Z,62.58
2023-12-08T06:30:48.371Z,63.39
2023-12-08T06:31:48.377Z,65.47
2023-12-08T06:32:48.460Z,64.20
2023-12-08T06:34:01.163Z,63.76
2023-12-08T06:34:50.448Z,64.92
2023-12-08T06:35:48.386Z,63.23
2023-12-08T06:36:48.329Z,62.10
2023-12-08T06:37:48.311Z,64.79
2023-12-08T06:38:48.350Z,63.33
2023-12-08T06:39:48.326Z,64.29
2023-12-08T06:40:48.292Z,62.96
2023-12-08T06:41:48.311Z,64.18
2023-12-08T06:42:48.278Z,63.43
2023-12-08T06:43:48.280Z,65.13
2023-12-08T06:44:48.287Z,63.79
2023-12-08T06:45:48.244Z,63.29
2023-12-08T06:46:48.237Z,65.59
2023-12-08T06:47:48.341Z,62.70
2023-12-08T06:48:48.358Z,63.53
2023-12-08T06:49:48.327Z,63.04
2023-12-08T06:50:48.233Z,62.76
2023-12-08T06:51:48.192Z,64.00
2023-12-08T06:52:48.206Z,63.72
2023-12-08T06:53:48.206Z,63.08
2023-12-08T06:54:48.167Z,65.02
2023-12-08T06:55:48.178Z,65.24
2023-12-08T06:56:48.206Z,64.05
2023-12-08T06:57:48.162Z,63.46
2023-12-08T06:58:48.129Z,63.20
2023-12-08T06:59:48.179Z,63.97
2023-12-08T07:00:48.130Z,64.21
2023-12-08T07:01:48.124Z,63.79
2023-12-08T07:02:48.194Z,63.71
2023-12-08T07:03:48.139Z,64.08
2023-12-08T07:04:48.109Z,63.09
2023-12-08T07:05:49.396Z,63.01
2023-12-08T07:06:49.093Z,61.43
2023-12-08T07:07:48.074Z,63.85
2023-12-08T07:08:48.054Z,63.16
2023-12-08T07:09:48.041Z,63.76
2023-12-08T07:10:48.030Z,62.53
2023-12-08T07:11:48.038Z,62.45
2023-12-08T07:12:48.011Z,63.26
2023-12-08T07:13:47.997Z,65.49
2023-12-08T07:14:48.019Z,62.93
2023-12-08T07:15:47.985Z,61.89
2023-12-08T07:16:48.035Z,60.78
2023-12-08T07:17:48.061Z,60.99
2023-12-08T07:18:48.100Z,61.36
2023-12-08T07:19:48.236Z,63.28
2023-12-08T07:20:48.017Z,61.53
2023-12-08T07:21:47.946Z,61.65
2023-12-08T07:22:47.926Z,60.74
2023-12-08T07:23:47.944Z,61.41
2023-12-08T07:24:47.914Z,63.81
2023-12-08T07:25:47.917Z,63.02
2023-12-08T07:26:47.909Z,61.81
2023-12-08T07:27:47.886Z,62.79
2023-12-08T07:28:47.880Z,63.04
2023-12-08T07:29:47.920Z,63.44
2023-12-08T07:30:47.894Z,63.35
2023-12-08T07:31:47.845Z,61.15
2023-12-08T07:32:49.516Z,62.03
2023-12-08T07:33:48.935Z,63.41
2023-12-08T07:34:47.913Z,63.00
2023-12-08T07:35:47.866Z,64.08
2023-12-08T07:36:47.856Z,61.60
2023-12-08T07:37:47.834Z,62.04
2023-12-08T07:38:47.856Z,61.61
2023-12-08T07:39:47.799Z,61.98
2023-12-08T07:40:47.776Z,62.45
2023-12-08T07:41:47.799Z,64.41
2023-12-08T07:42:47.788Z,63.63
2023-12-08T07:43:47.752Z,61.02
2023-12-08T07:44:48.806Z,63.09
2023-12-08T07:45:47.739Z,61.25
2023-12-08T07:46:47.729Z,61.83
2023-12-08T07:47:50.147Z,62.62
2023-12-08T07:48:48.820Z,61.09
2023-12-08T07:49:47.762Z,62.71
2023-12-08T07:50:47.731Z,61.31
2023-12-08T07:51:47.696Z,62.01
2023-12-08T07:52:47.740Z,62.04
2023-12-08T07:53:47.758Z,62.00
2023-12-08T07:54:47.669Z,61.46
2023-12-08T07:55:47.658Z,62.03
2023-12-08T07:56:47.721Z,61.06
2023-12-08T07:57:47.701Z,60.59
2023-12-08T07:58:47.641Z,59.56
2023-12-08T07:59:49.143Z,61.12
2023-12-08T08:00:47.658Z,63.11
2023-12-08T08:01:47.606Z,61.87
2023-12-08T08:02:47.628Z,61.75
2023-12-08T08:03:47.880Z,60.18
2023-12-08T08:04:47.594Z,62.56
2023-12-08T08:05:47.627Z,60.52
2023-12-08T08:06:47.730Z,63.85
2023-12-08T08:07:47.625Z,62.46
2023-12-08T08:08:47.579Z,60.53
2023-12-08T08:09:47.545Z,60.61
2023-12-08T08:10:47.535Z,61.30
2023-12-08T08:11:47.598Z,62.92
2023-12-08T08:12:47.583Z,62.02
2023-12-08T08:13:47.532Z,61.27
2023-12-08T08:14:47.516Z,61.38
2023-12-08T08:15:47.485Z,61.97
2023-12-08T08:16:47.504Z,61.95
2023-12-08T08:17:47.583Z,63.25
2023-12-08T08:18:47.578Z,64.83
2023-12-08T08:19:47.530Z,61.63
2023-12-08T08:20:47.484Z,61.49
2023-12-08T08:22:26.812Z,62.07
2023-12-08T08:22:48.443Z,61.46
2023-12-08T08:23:47.455Z,60.61
2023-12-08T08:24:47.418Z,60.62
2023-12-08T08:25:47.411Z,62.53
2023-12-08T08:26:47.428Z,62.73
2023-12-08T08:27:47.385Z,63.71
2023-12-08T08:28:47.391Z,62.35
2023-12-08T08:29:47.405Z,59.83
2023-12-08T08:30:47.396Z,59.16
2023-12-08T08:31:47.371Z,59.28
2023-12-08T08:32:47.348Z,60.44
2023-12-08T08:33:47.593Z,60.94
2023-12-08T08:34:47.374Z,60.34
2023-12-08T08:35:47.420Z,62.43
2023-12-08T08:36:47.325Z,61.30
2023-12-08T08:37:47.309Z,59.78
2023-12-08T08:38:47.362Z,60.70
2023-12-08T08:39:47.284Z,61.26
2023-12-08T08:40:47.294Z,61.05
2023-12-08T08:41:47.300Z,60.44
2023-12-08T08:42:47.277Z,61.18
2023-12-08T08:43:47.247Z,60.76
2023-12-08T08:44:47.277Z,63.46
2023-12-08T08:45:47.253Z,60.88
2023-12-08T08:46:47.228Z,60.96
2023-12-08T08:47:47.358Z,62.21
2023-12-08T08:48:47.343Z,62.22
2023-12-08T08:49:47.433Z,61.48
2023-12-08T08:50:49.971Z,60.58
2023-12-08T08:51:48.175Z,61.80
2023-12-08T08:52:47.179Z,62.37
2023-12-08T08:53:47.226Z,61.38
2023-12-08T08:54:47.174Z,61.45
2023-12-08T08:55:47.383Z,61.06
2023-12-08T08:56:47.175Z,59.08
2023-12-08T08:57:47.135Z,61.28
2023-12-08T08:58:47.147Z,62.68
2023-12-08T08:59:47.187Z,61.58
2023-12-08T09:00:47.169Z,60.55
2023-12-08T09:01:47.097Z,61.89
2023-12-08T09:02:48.192Z,63.60
2023-12-08T09:03:47.104Z,61.44
2023-12-08T09:04:47.151Z,61.02
2023-12-08T09:05:47.150Z,61.99
2023-12-08T09:06:47.170Z,61.62
2023-12-08T09:07:47.056Z,61.53
2023-12-08T09:08:48.047Z,62.44
2023-12-08T09:09:47.200Z,60.39
2023-12-08T09:10:48.375Z,60.94
2023-12-08T09:11:48.018Z,61.13
2023-12-08T09:12:47.011Z,61.64
2023-12-08T09:13:47.022Z,62.02
2023-12-08T09:14:47.000Z,63.20
2023-12-08T09:15:46.994Z,62.64
2023-12-08T09:16:46.966Z,62.09
2023-12-08T09:17:47.098Z,62.41
2023-12-08T09:18:47.128Z,62.25
2023-12-08T09:19:47.087Z,62.15
2023-12-08T09:20:46.959Z,61.26
2023-12-08T09:21:53.846Z,60.29
2023-12-08T09:22:47.920Z,62.21
2023-12-08T09:23:46.941Z,60.48
2023-12-08T09:24:46.890Z,60.79
2023-12-08T09:25:46.893Z,60.34
2023-12-08T09:26:46.931Z,60.32
2023-12-08T09:27:46.880Z,62.13
2023-12-08T09:28:46.872Z,60.78
2023-12-08T09:29:46.856Z,61.29
2023-12-08T09:30:46.851Z,61.75
2023-12-08T09:31:46.863Z,61.23
2023-12-08T09:32:46.968Z,60.69
2023-12-08T09:33:46.928Z,59.55
2023-12-08T09:34:46.966Z,58.10
2023-12-08T09:35:46.907Z,59.05
2023-12-08T09:37:24.556Z,60.99
2023-12-08T09:37:47.785Z,61.51
2023-12-08T09:38:46.782Z,62.08
2023-12-08T09:39:46.769Z,60.74
2023-12-08T09:40:46.774Z,59.46
2023-12-08T09:41:46.829Z,61.48
2023-12-08T09:42:46.803Z,62.84
2023-12-08T09:43:46.802Z,62.57
2023-12-08T09:44:46.775Z,62.42
2023-12-08T09:45:46.732Z,60.26
2023-12-08T09:46:47.887Z,61.07
2023-12-08T09:47:46.817Z,60.65
2023-12-08T09:48:46.929Z,63.14
2023-12-08T09:49:46.739Z,61.51
2023-12-08T09:50:46.797Z,60.66
2023-12-08T09:51:46.673Z,60.60
2023-12-08T09:52:46.666Z,61.27
2023-12-08T09:53:46.699Z,59.32
2023-12-08T09:54:46.656Z,61.78
2023-12-08T09:55:46.670Z,62.89
2023-12-08T09:56:46.639Z,62.88
2023-12-08T09:57:46.631Z,62.05
2023-12-08T09:58:46.663Z,62.46
2023-12-08T09:59:46.673Z,61.83
2023-12-08T10:00:46.604Z,61.19
2023-12-08T10:01:46.668Z,60.53
2023-12-08T10:02:46.589Z,62.43
2023-12-08T10:03:46.587Z,61.81
2023-12-08T10:04:46.593Z,63.66
2023-12-08T10:05:46.591Z,63.40
2023-12-08T10:06:46.545Z,64.09
2023-12-08T10:07:46.545Z,63.03
2023-12-08T10:08:46.593Z,63.82
2023-12-08T10:09:46.561Z,64.32
2023-12-08T10:10:46.524Z,63.34
2023-12-08T10:11:46.516Z,62.28
2023-12-08T10:12:47.489Z,65.05
2023-12-08T10:13:46.574Z,63.77
2023-12-08T10:14:46.533Z,64.46
2023-12-08T10:15:46.516Z,64.21
2023-12-08T10:16:46.477Z,63.26
2023-12-08T10:17:48.801Z,63.85
2023-12-08T10:18:46.561Z,64.73
2023-12-08T10:19:46.597Z,64.96
2023-12-08T10:20:46.455Z,65.46
2023-12-08T10:21:46.418Z,63.94
2023-12-08T10:22:46.455Z,64.30
2023-12-08T10:23:46.481Z,63.63
2023-12-08T10:24:46.392Z,65.14
2023-12-08T10:25:46.387Z,65.28
2023-12-08T10:26:46.421Z,64.90
2023-12-08T10:27:46.401Z,64.96
2023-12-08T10:28:46.366Z,65.50
2023-12-08T10:29:46.385Z,65.03
2023-12-08T10:30:46.352Z,64.06
2023-12-08T10:31:46.352Z,65.15
2023-12-08T10:32:46.568Z,65.82
2023-12-08T10:33:46.401Z,65.92
2023-12-08T10:35:18.738Z,63.48
2023-12-08T10:35:46.344Z,62.82
2023-12-08T10:36:46.340Z,64.80
2023-12-08T10:37:46.330Z,64.50
2023-12-08T10:38:46.327Z,63.90
2023-12-08T10:39:46.287Z,64.08
2023-12-08T10:40:46.266Z,64.76
2023-12-08T10:41:46.311Z,65.43
2023-12-08T10:42:46.268Z,64.76
2023-12-08T10:43:46.242Z,65.67
2023-12-08T10:44:46.273Z,65.46
2023-12-08T10:45:46.236Z,64.54
2023-12-08T10:46:46.249Z,63.03
2023-12-08T10:47:46.511Z,63.87
2023-12-08T10:48:46.283Z,64.89
2023-12-08T10:49:46.246Z,64.70
2023-12-08T10:50:46.249Z,64.82
2023-12-08T10:51:46.197Z,64.94
2023-12-08T10:52:46.177Z,65.00
2023-12-08T10:53:46.216Z,66.17
2023-12-08T10:54:46.157Z,66.80
2023-12-08T10:55:46.176Z,66.60
2023-12-08T10:56:46.183Z,66.81
2023-12-08T10:57:46.143Z,65.58
2023-12-08T10:58:46.152Z,64.20
2023-12-08T10:59:46.159Z,65.37
2023-12-08T11:00:46.196Z,65.67
2023-12-08T11:01:46.120Z,66.01
2023-12-08T11:02:46.154Z,66.06
2023-12-08T11:03:54.365Z,66.43
2023-12-08T11:04:48.136Z,66.90
2023-12-08T11:05:46.241Z,67.06
2023-12-08T11:06:46.076Z,65.60
2023-12-08T11:07:46.114Z,66.46
2023-12-08T11:08:46.110Z,67.51
2023-12-08T11:09:46.079Z,67.31
2023-12-08T11:10:46.041Z,67.15
2023-12-08T11:11:46.053Z,65.29
2023-12-08T11:12:46.041Z,65.37
2023-12-08T11:13:46.023Z,65.41
2023-12-08T11:14:46.059Z,65.33
2023-12-08T11:15:46.012Z,64.80
2023-12-08T11:16:46.023Z,65.91
2023-12-08T11:17:46.033Z,65.18
2023-12-08T11:18:46.115Z,64.97
2023-12-08T11:19:46.031Z,65.84
2023-12-08T11:20:46.050Z,67.33
2023-12-08T11:21:45.965Z,66.76
2023-12-08T11:22:45.975Z,66.84
2023-12-08T11:23:45.972Z,64.94
2023-12-08T11:24:45.939Z,64.85
2023-12-08T11:25:45.939Z,65.88
2023-12-08T11:26:45.950Z,65.63
2023-12-08T11:27:45.917Z,66.15
2023-12-08T11:28:45.928Z,65.88
2023-12-08T11:29:46.076Z,65.95
2023-12-08T11:30:45.894Z,66.77
2023-12-08T11:31:45.895Z,67.01
2023-12-08T11:32:45.998Z,65.87
2023-12-08T11:33:45.992Z,64.73
2023-12-08T11:34:45.864Z,65.91
2023-12-08T11:35:45.897Z,66.19
2023-12-08T11:36:45.850Z,67.52
2023-12-08T11:37:45.867Z,66.71
2023-12-08T11:38:45.861Z,65.62
2023-12-08T11:39:45.840Z,67.66
2023-12-08T11:40:45.813Z,65.63
2023-12-08T11:41:45.866Z,66.28
2023-12-08T11:42:45.849Z,65.54
2023-12-08T11:43:45.865Z,65.71
2023-12-08T11:44:45.919Z,67.17
2023-12-08T11:45:45.771Z,67.07
2023-12-08T11:46:46.797Z,66.89
2023-12-08T11:47:45.888Z,65.75
2023-12-08T11:48:45.875Z,65.84
2023-12-08T11:49:45.813Z,67.08
2023-12-08T11:50:45.778Z,65.73
2023-12-08T11:51:45.753Z,66.28
2023-12-08T11:52:45.709Z,66.44
2023-12-08T11:53:45.737Z,65.64
2023-12-08T11:54:54.638Z,64.68
2023-12-08T11:55:46.718Z,65.50
2023-12-08T11:56:45.716Z,66.62
2023-12-08T11:57:45.925Z,65.42
2023-12-08T11:58:45.666Z,66.24
2023-12-08T11:59:45.712Z,66.00
2023-12-08T12:00:45.692Z,66.15
2023-12-08T12:01:45.655Z,64.73
2023-12-08T12:02:45.672Z,65.21
2023-12-08T12:03:45.664Z,66.08
2023-12-08T12:04:45.648Z,66.46
2023-12-08T12:05:45.720Z,67.22
2023-12-08T12:06:45.621Z,66.46
2023-12-08T12:07:45.578Z,65.05
2023-12-08T12:08:45.568Z,64.80
2023-12-08T12:09:45.644Z,66.20
2023-12-08T12:10:45.568Z,64.82
2023-12-08T12:11:45.556Z,64.69
2023-12-08T12:12:45.536Z,64.81
2023-12-08T12:13:45.524Z,65.58
2023-12-08T12:14:45.575Z,66.91
2023-12-08T12:15:45.538Z,66.03
2023-12-08T12:16:45.498Z,66.23
2023-12-08T12:17:45.543Z,66.98
2023-12-08T12:18:45.571Z,67.04
2023-12-08T12:19:45.533Z,66.92
2023-12-08T12:20:45.511Z,64.69
2023-12-08T12:21:45.597Z,64.39
2023-12-08T12:22:45.451Z,65.28
2023-12-08T12:23:45.452Z,65.55
2023-12-08T12:24:45.455Z,66.35
2023-12-08T12:25:45.427Z,65.74
2023-12-08T12:26:45.428Z,65.73
2023-12-08T12:27:45.412Z,65.34
2023-12-08T12:28:45.409Z,65.68
2023-12-08T12:29:45.447Z,65.13
2023-12-08T12:30:45.417Z,66.62
2023-12-08T12:31:45.386Z,64.94
2023-12-08T12:32:45.533Z,65.49
2023-12-08T12:33:49.400Z,64.43
2023-12-08T12:34:46.388Z,64.52
2023-12-08T12:35:49.092Z,65.01
2023-12-08T12:36:47.371Z,64.88
2023-12-08T12:37:45.330Z,64.79
2023-12-08T12:38:45.350Z,65.43
2023-12-08T12:39:47.089Z,64.91
2023-12-08T12:40:45.325Z,62.38
2023-12-08T12:41:45.398Z,63.54
2023-12-08T12:42:45.346Z,64.33
2023-12-08T12:43:45.345Z,64.60
2023-12-08T12:44:45.349Z,64.15
2023-12-08T12:45:45.296Z,63.88
2023-12-08T12:46:45.250Z,64.75
2023-12-08T12:47:45.368Z,65.30
2023-12-08T12:48:45.374Z,65.02
2023-12-08T12:49:46.272Z,63.83
2023-12-08T12:50:45.330Z,63.50
2023-12-08T12:51:45.212Z,64.33
2023-12-08T12:52:45.249Z,62.28